Time;durP1;ratioP1;P1;durP2;ratioP2;P2;SDS_P1;SDS_P2;PMS_P1;PMS_P2;Temp;Humidity;BMP_temperature;BMP_pressure;BME280_temperature;BME280_humidity;BME280_pressure;Samples;Min_cycle;Max_cycle;Signal;HPM_P1;HPM_P2
2023/06/01 04:30:07;;;;;;;27.70;13.47;;;16.00;73.20;;;;;;6019952;23;20019;31
2023/06/01 04:32:39;;;;;;;26.30;12.85;;;16.00;73.00;;;;;;4917978;29;20051;-75
2023/06/01 04:35:06;;;;;;;29.52;13.35;;;16.00;73.10;;;;;;4931288;29;20087;-75
2023/06/01 04:37:39;;;;;;;24.50;13.10;;;16.00;73.00;;;;;;4935328;29;20078;-75
2023/06/01 04:40:09;;;;;;;23.60;12.90;;;16.00;72.80;;;;;;4932386;29;20599;-75
2023/06/01 04:42:41;;;;;;;28.20;13.27;;;16.00;72.80;;;;;;4937556;29;20035;-75
2023/06/01 04:45:07;;;;;;;28.50;14.02;;;16.00;73.00;;;;;;4943287;29;20048;-75
2023/06/01 04:47:37;;;;;;;26.63;13.23;;;16.00;72.70;;;;;;4916029;29;20392;-75
2023/06/01 04:50:08;;;;;;;28.30;13.18;;;16.00;73.00;;;;;;4915797;29;20067;-75
2023/06/01 04:52:34;;;;;;;27.17;12.93;;;16.10;72.60;;;;;;4916114;29;20456;-74
2023/06/01 04:55:00;;;;;;;28.55;13.80;;;16.00;72.90;;;;;;4916133;29;20040;-73
2023/06/01 04:57:25;;;;;;;27.35;12.82;;;16.00;72.80;;;;;;4916106;29;20035;-74
2023/06/01 04:59:51;;;;;;;27.38;14.02;;;16.10;72.50;;;;;;4915613;29;20103;-74
2023/06/01 05:02:17;;;;;;;28.55;13.77;;;16.10;72.30;;;;;;4925733;29;20501;-74
2023/06/01 05:04:43;;;;;;;28.20;13.95;;;16.10;72.50;;;;;;4936473;29;20024;-74
2023/06/01 05:07:08;;;;;;;26.10;14.27;;;16.20;72.10;;;;;;4936333;29;20038;-74
2023/06/01 05:09:34;;;;;;;24.40;13.40;;;16.20;72.30;;;;;;4943215;29;20031;-74
2023/06/01 05:12:00;;;;;;;27.63;13.35;;;16.10;72.40;;;;;;4931027;29;20080;-74
2023/06/01 05:14:25;;;;;;;26.63;13.27;;;16.20;72.30;;;;;;4917965;29;20054;-74
2023/06/01 05:16:51;;;;;;;25.55;13.88;;;16.20;72.20;;;;;;4919750;29;20032;-74
2023/06/01 05:19:17;;;;;;;26.48;12.82;;;16.20;72.80;;;;;;4942046;29;20908;-74
2023/06/01 05:21:43;;;;;;;25.27;12.85;;;16.10;72.80;;;;;;4929441;29;20015;-73
2023/06/01 05:24:09;;;;;;;29.58;13.93;;;16.20;72.80;;;;;;4938201;29;20055;-75
2023/06/01 05:26:35;;;;;;;22.50;12.80;;;16.30;72.40;;;;;;4936940;29;20038;-75
2023/06/01 05:29:01;;;;;;;25.60;13.75;;;16.30;72.20;;;;;;4936871;28;20071;-75
2023/06/01 05:31:27;;;;;;;22.40;13.13;;;16.30;72.50;;;;;;4927199;29;20103;-74
2023/06/01 05:33:52;;;;;;;28.58;12.82;;;16.30;72.40;;;;;;4908635;29;20073;-74
2023/06/01 05:36:18;;;;;;;24.50;13.77;;;16.30;72.50;;;;;;4903569;29;20028;-74
2023/06/01 05:38:44;;;;;;;31.23;13.57;;;16.30;72.50;;;;;;4909365;29;20033;-74
2023/06/01 05:41:09;;;;;;;27.95;13.88;;;16.30;73.00;;;;;;4899160;29;20475;-74
2023/06/01 05:43:36;;;;;;;22.42;13.57;;;16.30;72.50;;;;;;4901126;29;20039;-74
2023/06/01 05:46:02;;;;;;;25.38;12.90;;;16.40;72.50;;;;;;4883461;29;20522;-74
2023/06/01 05:48:28;;;;;;;25.58;13.35;;;16.40;72.40;;;;;;4898714;29;20029;-74
2023/06/01 05:50:53;;;;;;;25.35;12.70;;;16.40;72.40;;;;;;4901393;29;20028;-74
2023/06/01 05:53:19;;;;;;;25.63;12.63;;;16.50;72.10;;;;;;4909605;29;20898;-73
2023/06/01 05:55:45;;;;;;;27.98;14.25;;;16.50;72.20;;;;;;4883289;29;20391;-74
2023/06/01 05:58:10;;;;;;;23.55;13.38;;;16.60;71.90;;;;;;4915661;29;20063;-74
2023/06/01 06:00:36;;;;;;;21.98;12.40;;;16.60;72.00;;;;;;4919910;29;20471;-73
2023/06/01 06:03:04;;;;;;;25.08;13.98;;;16.60;71.70;;;;;;4917569;29;20040;-74
2023/06/01 06:05:29;;;;;;;24.70;13.68;;;16.60;72.20;;;;;;4918828;29;20025;-74
2023/06/01 06:07:55;;;;;;;22.98;13.60;;;16.70;71.60;;;;;;4918886;29;20601;-74
2023/06/01 06:10:21;;;;;;;24.77;13.48;;;16.80;71.80;;;;;;4904858;29;20084;-74
2023/06/01 06:12:47;;;;;;;27.88;14.02;;;16.80;71.80;;;;;;4920930;29;20040;-74
2023/06/01 06:15:12;;;;;;;24.33;13.30;;;16.80;71.70;;;;;;4922451;29;20024;-74
2023/06/01 06:17:38;;;;;;;29.90;13.70;;;16.80;71.80;;;;;;4904225;29;20040;-74
2023/06/01 06:20:07;;;;;;;26.05;13.52;;;16.90;71.50;;;;;;4903472;29;20167;-74
2023/06/01 06:22:33;;;;;;;28.40;13.20;;;16.90;71.50;;;;;;4903649;29;20033;-74
2023/06/01 06:24:58;;;;;;;24.02;13.88;;;17.00;71.30;;;;;;4902343;29;20033;-74
2023/06/01 06:27:24;;;;;;;25.17;13.63;;;17.10;70.90;;;;;;4903381;29;20061;-76
2023/06/01 06:29:50;;;;;;;25.80;13.57;;;17.10;70.90;;;;;;4903412;29;20041;-73
2023/06/01 06:32:15;;;;;;;27.65;14.50;;;17.20;71.10;;;;;;4919713;29;20052;-74
2023/06/01 06:34:41;;;;;;;23.50;13.57;;;17.20;71.20;;;;;;4935522;29;20103;-73
2023/06/01 06:37:07;;;;;;;25.77;12.98;;;17.20;70.80;;;;;;4930789;29;20070;-73
2023/06/01 06:39:33;;;;;;;23.15;12.93;;;17.30;70.60;;;;;;4922025;29;20514;-73
2023/06/01 06:42:02;;;;;;;27.67;13.73;;;17.40;70.50;;;;;;4905068;29;20035;-73
2023/06/01 06:44:27;;;;;;;27.17;13.95;;;17.40;70.60;;;;;;4955033;29;20043;-73
2023/06/01 06:46:53;;;;;;;24.05;12.65;;;17.40;70.60;;;;;;4922428;29;21072;-73
2023/06/01 06:49:19;;;;;;;24.35;12.75;;;17.50;70.50;;;;;;4937179;29;20031;-73
2023/06/01 06:51:45;;;;;;;22.65;12.23;;;17.50;70.70;;;;;;4939752;29;20046;-74
2023/06/01 06:54:11;;;;;;;24.90;12.93;;;17.60;70.30;;;;;;4922657;29;20118;-74
2023/06/01 06:56:37;;;;;;;24.13;12.82;;;17.70;70.10;;;;;;4923551;29;20035;-74
2023/06/01 06:59:03;;;;;;;23.13;12.75;;;17.80;69.90;;;;;;4923756;29;20020;-74
2023/06/01 07:01:28;;;;;;;22.88;12.68;;;17.80;69.80;;;;;;4938231;29;20063;-74
2023/06/01 07:03:55;;;;;;;20.25;12.43;;;17.90;69.50;;;;;;4940368;29;20020;-73
2023/06/01 07:06:22;;;;;;;24.50;12.75;;;17.90;69.40;;;;;;4923266;29;20482;-73
2023/06/01 07:08:48;;;;;;;24.17;12.32;;;18.00;69.10;;;;;;4931494;29;20032;-73
2023/06/01 07:11:14;;;;;;;24.15;12.25;;;18.00;68.70;;;;;;4931781;29;20119;-73
2023/06/01 07:13:40;;;;;;;23.80;12.50;;;18.20;68.40;;;;;;4940402;29;20051;-73
2023/06/01 07:16:05;;;;;;;26.02;12.70;;;18.20;67.90;;;;;;4937884;29;20774;-73
2023/06/01 07:18:31;;;;;;;22.67;12.82;;;18.30;67.90;;;;;;4939167;29;20190;-73
2023/06/01 07:20:58;;;;;;;24.98;12.43;;;18.50;67.50;;;;;;4939222;29;20035;-73
2023/06/01 07:23:23;;;;;;;22.80;11.55;;;18.60;67.20;;;;;;4922401;29;20394;-73
2023/06/01 07:25:49;;;;;;;19.08;11.25;;;18.90;66.00;;;;;;4926790;29;20032;-73
2023/06/01 07:28:15;;;;;;;17.15;10.73;;;19.30;65.60;;;;;;4924499;29;20023;-73
2023/06/01 07:30:41;;;;;;;19.33;11.43;;;20.00;63.70;;;;;;4938774;29;20052;-74
2023/06/01 07:33:07;;;;;;;15.18;10.57;;;21.50;60.00;;;;;;4922343;29;20046;-74
2023/06/01 07:35:33;;;;;;;14.52;10.90;;;22.60;56.00;;;;;;4937093;29;20024;-74
2023/06/01 07:38:00;;;;;;;17.90;11.40;;;23.80;52.70;;;;;;4940056;29;20031;-73
2023/06/01 07:40:26;;;;;;;14.13;10.98;;;24.90;49.60;;;;;;4922234;29;20439;-74
2023/06/01 07:42:51;;;;;;;14.85;11.27;;;26.00;47.80;;;;;;4943699;29;20038;-74
2023/06/01 07:45:17;;;;;;;16.58;12.27;;;27.80;44.30;;;;;;4953730;29;20644;-74
2023/06/01 07:47:43;;;;;;;14.23;11.32;;;29.90;40.50;;;;;;4920789;29;20443;-74
2023/06/01 07:50:09;;;;;;;15.73;11.63;;;31.90;36.10;;;;;;4920831;29;20135;-74
2023/06/01 07:52:36;;;;;;;15.15;11.20;;;33.40;33.70;;;;;;4904112;29;20423;-74
2023/06/01 07:55:03;;;;;;;13.13;10.93;;;34.60;31.90;;;;;;4904135;29;20503;-74
2023/06/01 07:57:28;;;;;;;11.95;10.57;;;35.40;30.50;;;;;;4920455;29;20070;-77
2023/06/01 07:59:54;;;;;;;12.38;10.73;;;36.00;28.40;;;;;;4928881;29;20028;-77
2023/06/01 08:02:20;;;;;;;12.80;11.48;;;36.70;28.50;;;;;;4924095;29;20028;-77
2023/06/01 08:04:46;;;;;;;12.55;11.25;;;37.00;27.70;;;;;;4936580;29;20035;-77
2023/06/01 08:07:14;;;;;;;13.18;10.82;;;37.20;27.20;;;;;;4935026;29;20465;-77
2023/06/01 08:09:39;;;;;;;11.70;10.20;;;37.60;26.70;;;;;;4920302;29;20036;-77
2023/06/01 08:12:06;;;;;;;11.52;10.18;;;37.70;27.00;;;;;;4937119;29;20063;-77
2023/06/01 08:14:33;;;;;;;12.45;11.15;;;37.90;26.60;;;;;;4935708;29;20078;-77
2023/06/01 08:17:01;;;;;;;12.23;10.93;;;38.00;26.00;;;;;;4920171;29;20043;-76
2023/06/01 08:19:27;;;;;;;12.65;10.05;;;38.20;26.30;;;;;;4920059;29;20028;-76
2023/06/01 08:21:53;;;;;;;12.98;11.25;;;38.30;26.10;;;;;;4920234;29;20020;-76
2023/06/01 08:24:22;;;;;;;12.35;10.57;;;38.70;25.50;;;;;;4920056;29;20043;-76
2023/06/01 08:26:48;;;;;;;11.85;10.45;;;38.70;25.60;;;;;;4919992;29;20056;-77
2023/06/01 08:29:14;;;;;;;14.60;10.20;;;38.90;25.90;;;;;;4933044;29;20070;-77
2023/06/01 08:31:39;;;;;;;12.02;10.57;;;39.00;25.70;;;;;;4938836;29;20048;-76
2023/06/01 08:34:05;;;;;;;12.25;11.05;;;39.10;24.80;;;;;;4936145;29;22132;-76
2023/06/01 08:36:31;;;;;;;11.65;10.45;;;38.90;25.10;;;;;;4919755;29;20092;-76
2023/06/01 08:38:57;;;;;;;13.77;11.02;;;38.80;25.40;;;;;;4920021;29;20087;-76
2023/06/01 08:41:47;;;;;;;11.98;10.75;;;38.30;25.50;;;;;;4919610;29;20036;-79
2023/06/01 08:44:14;;;;;;;11.48;10.32;;;38.20;25.20;;;;;;4930081;29;20040;-76
2023/06/01 08:46:41;;;;;;;12.05;9.52;;;38.20;25.60;;;;;;4935837;29;20027;-76
2023/06/01 08:49:10;;;;;;;11.07;10.07;;;38.00;25.20;;;;;;4936920;29;20087;-76
2023/06/01 08:51:38;;;;;;;11.18;9.75;;;38.10;25.70;;;;;;4937779;29;20027;-77
2023/06/01 08:54:05;;;;;;;11.52;10.07;;;38.30;25.60;;;;;;4922971;29;20037;-76
2023/06/01 08:56:31;;;;;;;11.18;9.60;;;38.10;25.60;;;;;;4937764;29;20052;-76
2023/06/01 08:58:56;;;;;;;12.38;10.35;;;38.50;25.80;;;;;;4938321;29;20466;-76
2023/06/01 09:01:23;;;;;;;11.82;10.60;;;38.80;25.10;;;;;;4935205;29;20055;-77
2023/06/01 09:03:50;;;;;;;13.10;9.73;;;38.90;24.50;;;;;;4936556;29;20122;-76
2023/06/01 09:06:16;;;;;;;11.27;10.02;;;38.90;25.30;;;;;;4936379;29;20033;-76
2023/06/01 09:08:42;;;;;;;11.73;10.52;;;38.90;24.80;;;;;;4938186;29;20098;-76
2023/06/01 09:11:07;;;;;;;10.80;9.70;;;38.90;25.20;;;;;;4937677;29;20028;-77
2023/06/01 09:13:35;;;;;;;10.95;9.80;;;39.00;24.80;;;;;;4933270;29;20023;-77
2023/06/01 09:16:01;;;;;;;11.43;10.23;;;38.80;24.80;;;;;;4938152;29;20382;-77
2023/06/01 09:18:27;;;;;;;10.93;9.93;;;39.00;25.00;;;;;;4938472;29;20031;-76
2023/06/01 09:20:53;;;;;;;11.07;9.35;;;39.10;25.20;;;;;;4930629;29;20032;-77
2023/06/01 09:23:29;;;;;;;11.30;10.05;;;39.30;24.50;;;;;;4919038;29;20051;-77
2023/06/01 09:26:05;;;;;;;10.90;9.73;;;39.30;24.50;;;;;;4921545;29;20815;-76
2023/06/01 09:28:54;;;;;;;9.35;8.13;;;39.30;24.50;;;;;;4937992;29;20078;-77
2023/06/01 09:31:46;;;;;;;10.60;9.48;;;39.20;25.00;;;;;;4938251;29;20054;-77
2023/06/01 09:34:20;;;;;;;10.35;8.52;;;39.40;24.80;;;;;;4936320;29;20111;-77
2023/06/01 09:36:47;;;;;;;9.48;8.57;;;39.60;23.80;;;;;;4938148;29;20398;-77
2023/06/01 09:39:15;;;;;;;10.82;9.15;;;39.30;24.70;;;;;;4937956;29;20028;-77
2023/06/01 09:41:58;;;;;;;11.20;9.40;;;39.50;25.00;;;;;;4935969;29;20027;-76
2023/06/01 09:44:33;;;;;;;10.05;9.15;;;39.60;25.00;;;;;;4940574;29;20042;-76
2023/06/01 09:47:01;;;;;;;10.82;9.73;;;39.80;23.50;;;;;;4938819;29;20114;-76
2023/06/01 09:49:36;;;;;;;12.70;8.82;;;39.70;24.30;;;;;;4950830;29;20485;-77
2023/06/01 09:52:05;;;;;;;10.55;8.68;;;39.70;24.00;;;;;;4925557;29;20380;-76
2023/06/01 09:54:36;;;;;;;10.00;9.00;;;39.50;24.10;;;;;;4938629;29;20028;-75
2023/06/01 09:57:04;;;;;;;10.07;8.95;;;39.60;24.50;;;;;;4927754;29;20036;-77
2023/06/01 09:59:41;;;;;;;9.05;8.15;;;39.00;25.10;;;;;;4922549;29;20032;-77
2023/06/01 10:02:12;;;;;;;9.35;8.38;;;39.00;24.20;;;;;;4922239;29;20111;-77
2023/06/01 10:04:40;;;;;;;10.52;8.52;;;39.00;24.80;;;;;;4934790;29;20038;-76
2023/06/01 10:07:07;;;;;;;8.50;7.60;;;38.90;23.20;;;;;;4934186;29;20062;-77
2023/06/01 10:09:35;;;;;;;9.40;8.02;;;38.70;25.20;;;;;;4940812;29;20426;-77
2023/06/01 10:12:03;;;;;;;8.93;7.95;;;38.80;24.70;;;;;;4940972;29;20427;-77
2023/06/01 10:14:29;;;;;;;8.98;7.53;;;38.60;24.40;;;;;;4940417;29;20035;-76
2023/06/01 10:16:55;;;;;;;10.18;7.65;;;38.70;24.60;;;;;;4935669;29;20554;-77
2023/06/01 10:19:22;;;;;;;9.73;8.27;;;38.10;25.10;;;;;;4930662;29;20076;-77
2023/06/01 10:21:48;;;;;;;14.18;8.65;;;37.80;26.90;;;;;;4921673;29;20454;-77
2023/06/01 10:24:20;;;;;;;10.38;8.82;;;37.80;26.10;;;;;;4927651;29;20031;-77
2023/06/01 10:27:10;;;;;;;9.25;8.18;;;37.30;26.30;;;;;;4941123;29;20034;-77
2023/06/01 10:29:37;;;;;;;9.00;7.65;;;37.00;27.50;;;;;;4927147;29;20032;-77
2023/06/01 10:32:03;;;;;;;9.18;7.50;;;36.80;27.60;;;;;;4924946;29;20039;-77
2023/06/01 10:34:44;;;;;;;9.70;7.85;;;36.70;28.10;;;;;;4934738;29;20036;-77
2023/06/01 10:37:13;;;;;;;10.55;7.07;;;36.20;28.20;;;;;;4921874;29;20039;-77
2023/06/01 10:39:40;;;;;;;10.30;7.65;;;35.40;28.60;;;;;;4921895;29;20447;-77
2023/06/01 10:42:14;;;;;;;10.50;7.60;;;34.80;29.70;;;;;;4921880;29;20039;-76
2023/06/01 10:44:40;;;;;;;8.68;6.85;;;34.00;29.90;;;;;;4934070;29;20032;-76
2023/06/01 10:47:11;;;;;;;10.25;6.80;;;33.30;31.70;;;;;;4920473;29;20039;-76
2023/06/01 10:49:52;;;;;;;11.90;7.78;;;32.80;32.30;;;;;;4921431;29;20106;-77
2023/06/01 10:52:28;;;;;;;12.63;7.60;;;32.50;32.80;;;;;;4921723;29;20024;-76
2023/06/01 10:54:55;;;;;;;11.88;7.57;;;32.30;33.60;;;;;;4921473;29;20059;-76
2023/06/01 10:57:24;;;;;;;9.43;7.85;;;32.10;34.30;;;;;;4925206;29;20052;-74
2023/06/01 11:00:22;;;;;;;9.35;6.60;;;32.00;33.90;;;;;;4920005;29;20035;-80
2023/06/01 11:03:04;;;;;;;9.20;6.95;;;31.70;33.80;;;;;;4921639;29;20640;-76
2023/06/01 11:05:47;;;;;;;11.02;7.28;;;31.40;34.50;;;;;;4921559;29;20525;-78
2023/06/01 11:08:20;;;;;;;10.45;7.45;;;31.30;35.00;;;;;;4919628;29;20039;-79
2023/06/01 11:10:55;;;;;;;11.15;7.47;;;31.20;35.80;;;;;;4927814;29;20102;-79
2023/06/01 11:13:34;;;;;;;12.00;7.32;;;31.10;35.40;;;;;;4923650;29;20032;-79
2023/06/01 11:16:21;;;;;;;10.27;7.15;;;31.30;36.10;;;;;;4921787;29;20024;-74
2023/06/01 11:18:58;;;;;;;9.60;6.10;;;30.90;35.00;;;;;;4921325;29;20484;-74
2023/06/01 11:21:27;;;;;;;11.85;6.32;;;30.60;35.50;;;;;;4935068;29;20032;-74
2023/06/01 11:23:55;;;;;;;9.60;6.55;;;30.50;35.60;;;;;;4939080;29;20039;-74
2023/06/01 11:26:24;;;;;;;9.93;6.90;;;30.40;36.30;;;;;;4939954;29;20035;-74
2023/06/01 11:28:52;;;;;;;10.27;7.05;;;30.50;36.80;;;;;;4937315;29;20024;-74
2023/06/01 11:31:19;;;;;;;8.63;6.28;;;30.60;36.60;;;;;;4940110;29;20059;-74
2023/06/01 11:33:58;;;;;;;10.00;6.22;;;30.40;35.60;;;;;;4923013;29;20386;-73
2023/06/01 11:36:24;;;;;;;10.95;5.88;;;30.40;35.40;;;;;;4931936;29;20087;-74
2023/06/01 11:38:51;;;;;;;8.95;5.70;;;30.10;34.20;;;;;;4940132;29;20027;-76
2023/06/01 11:41:17;;;;;;;8.20;6.07;;;30.20;34.50;;;;;;4937629;29;20494;-75
2023/06/01 11:43:43;;;;;;;10.10;6.50;;;30.20;35.70;;;;;;4939698;29;20027;-73
2023/06/01 11:46:12;;;;;;;10.20;6.50;;;30.20;35.30;;;;;;4939217;29;20055;-74
2023/06/01 11:48:37;;;;;;;10.40;6.82;;;30.10;36.10;;;;;;4931771;29;20032;-74
2023/06/01 11:51:04;;;;;;;8.63;7.18;;;30.20;35.80;;;;;;4903766;29;20039;-74
2023/06/01 11:53:31;;;;;;;9.95;6.47;;;30.10;35.60;;;;;;4927368;29;20016;-74
2023/06/01 11:55:57;;;;;;;8.15;5.88;;;30.10;36.00;;;;;;4932860;29;20024;-74
2023/06/01 11:58:28;;;;;;;8.55;5.85;;;30.10;35.90;;;;;;4920667;29;20479;-73
2023/06/01 12:00:54;;;;;;;10.35;6.35;;;30.00;35.90;;;;;;4927697;29;20032;-74
2023/06/01 12:03:21;;;;;;;9.13;6.40;;;30.00;35.60;;;;;;4938959;29;20027;-74
2023/06/01 12:05:49;;;;;;;7.45;5.90;;;29.90;38.00;;;;;;4936570;29;20071;-74
2023/06/01 12:08:18;;;;;;;8.13;5.22;;;29.90;36.70;;;;;;4941693;29;20087;-74
2023/06/01 12:10:50;;;;;;;8.07;5.65;;;29.80;35.60;;;;;;4938685;29;20035;-74
2023/06/01 12:13:17;;;;;;;9.25;5.80;;;29.80;36.30;;;;;;4939344;29;20163;-73
2023/06/01 12:15:43;;;;;;;9.35;5.60;;;29.60;35.30;;;;;;4924913;29;20043;-74
2023/06/01 12:18:09;;;;;;;13.52;5.70;;;29.60;36.20;;;;;;4920230;29;20028;-74
2023/06/01 12:20:41;;;;;;;9.90;5.55;;;29.60;35.80;;;;;;4917613;29;20048;-74
2023/06/01 12:23:12;;;;;;;8.93;6.07;;;29.80;36.50;;;;;;4918734;29;20035;-77
2023/06/01 12:25:47;;;;;;;9.13;5.90;;;29.90;36.50;;;;;;4925723;29;20031;-74
2023/06/01 12:28:13;;;;;;;10.35;5.57;;;29.90;36.10;;;;;;4938772;29;20103;-74
2023/06/01 12:30:39;;;;;;;10.68;5.65;;;29.80;36.00;;;;;;4938516;29;20083;-74
2023/06/01 12:33:05;;;;;;;9.45;5.10;;;29.90;35.50;;;;;;4922590;29;20036;-73
2023/06/01 12:35:32;;;;;;;10.82;5.18;;;29.80;35.60;;;;;;4938903;29;20028;-73
2023/06/01 12:38:10;;;;;;;7.93;5.05;;;29.80;35.50;;;;;;4916736;29;20043;-73
2023/06/01 12:40:36;;;;;;;9.23;5.07;;;29.50;36.70;;;;;;4902865;29;20024;-73
2023/06/01 12:43:04;;;;;;;7.95;5.63;;;29.50;36.50;;;;;;4931625;29;20034;-73
2023/06/01 12:45:37;;;;;;;6.75;4.90;;;29.50;37.10;;;;;;4935783;29;20032;-73
2023/06/01 12:48:03;;;;;;;8.90;5.90;;;29.60;36.20;;;;;;4919819;29;20028;-73
2023/06/01 12:50:30;;;;;;;9.73;4.97;;;29.50;36.70;;;;;;4919122;29;20106;-74
2023/06/01 12:52:56;;;;;;;8.57;5.50;;;29.60;36.60;;;;;;4902454;29;20029;-74
2023/06/01 12:55:21;;;;;;;7.30;5.10;;;29.40;37.30;;;;;;4917755;29;20078;-76
2023/06/01 12:57:54;;;;;;;8.45;5.40;;;29.50;36.50;;;;;;4919683;29;20032;-74
2023/06/01 13:00:20;;;;;;;8.85;5.10;;;29.60;37.10;;;;;;4920526;29;20451;-73
2023/06/01 13:02:50;;;;;;;9.05;5.07;;;29.60;37.00;;;;;;4938512;29;20022;-73
2023/06/01 13:05:17;;;;;;;9.05;6.10;;;29.50;36.50;;;;;;4938465;29;20028;-73
2023/06/01 13:07:45;;;;;;;8.95;5.60;;;29.60;35.90;;;;;;4936948;29;20031;-73
2023/06/01 13:10:14;;;;;;;7.80;5.50;;;29.70;36.20;;;;;;4931647;29;20059;-73
2023/06/01 13:12:42;;;;;;;9.20;5.22;;;29.70;36.80;;;;;;4938207;29;20517;-73
2023/06/01 13:15:09;;;;;;;7.78;5.25;;;29.70;36.50;;;;;;4937962;29;20031;-73
2023/06/01 13:17:34;;;;;;;10.38;5.03;;;29.70;37.50;;;;;;4928770;29;20040;-73
2023/06/01 13:20:00;;;;;;;7.70;5.28;;;29.70;38.30;;;;;;4919391;29;20056;-73
2023/06/01 13:22:26;;;;;;;8.70;5.30;;;29.40;36.80;;;;;;4917470;29;20066;-73
2023/06/01 13:24:51;;;;;;;7.53;5.07;;;29.30;36.40;;;;;;4919254;29;20050;-73
2023/06/01 13:27:17;;;;;;;9.93;5.30;;;29.40;37.40;;;;;;4920879;29;20032;-73
2023/06/01 13:29:43;;;;;;;9.63;5.18;;;29.60;38.30;;;;;;4937072;29;20058;-73
2023/06/01 13:32:08;;;;;;;7.18;5.20;;;29.70;38.20;;;;;;4937964;29;20110;-74
2023/06/01 13:34:35;;;;;;;9.00;5.45;;;29.60;37.00;;;;;;4919905;29;20031;-73
2023/06/01 13:37:01;;;;;;;10.98;5.40;;;29.60;37.50;;;;;;4938221;29;20031;-73
2023/06/01 13:39:26;;;;;;;8.60;4.85;;;29.70;37.00;;;;;;4921128;29;20028;-73
2023/06/01 13:41:52;;;;;;;8.77;5.30;;;29.60;38.80;;;;;;4921322;29;20134;-73
2023/06/01 13:44:18;;;;;;;8.40;5.35;;;29.50;38.10;;;;;;4912715;29;20044;-73
2023/06/01 13:46:44;;;;;;;8.63;5.20;;;29.60;38.20;;;;;;4918763;29;20518;-73
2023/06/01 13:49:09;;;;;;;7.28;4.78;;;29.60;38.20;;;;;;4918957;29;20024;-73
2023/06/01 13:51:37;;;;;;;7.13;5.50;;;29.60;37.20;;;;;;4919107;29;20032;-73
2023/06/01 13:54:04;;;;;;;8.20;5.30;;;29.50;38.30;;;;;;4937709;29;20071;-73
2023/06/01 13:56:29;;;;;;;8.23;5.30;;;29.40;37.00;;;;;;4921812;29;20410;-73
2023/06/01 13:58:55;;;;;;;8.45;5.15;;;29.40;38.30;;;;;;4936997;29;20036;-73
2023/06/01 14:01:21;;;;;;;6.97;5.03;;;29.50;38.20;;;;;;4932833;29;20028;-73
2023/06/01 14:03:47;;;;;;;6.78;4.72;;;29.60;38.40;;;;;;4922300;29;20035;-74
2023/06/01 14:06:13;;;;;;;9.45;4.88;;;29.70;38.10;;;;;;4937956;29;20072;-73
2023/06/01 14:08:38;;;;;;;7.72;4.70;;;29.60;37.90;;;;;;4923448;29;20047;-73
2023/06/01 14:11:04;;;;;;;6.72;4.05;;;29.60;37.70;;;;;;4927495;29;20059;-74
2023/06/01 14:13:30;;;;;;;7.82;4.55;;;29.50;36.80;;;;;;4937798;29;20051;-73
2023/06/01 14:15:56;;;;;;;6.28;4.85;;;29.40;37.70;;;;;;4938059;29;20098;-74
2023/06/01 14:18:21;;;;;;;7.78;4.65;;;29.50;38.70;;;;;;4925868;29;20044;-73
2023/06/01 14:20:47;;;;;;;8.15;4.53;;;29.50;37.50;;;;;;4918767;29;20375;-74
2023/06/01 14:23:13;;;;;;;7.63;4.90;;;29.60;37.00;;;;;;4918658;29;20028;-73
2023/06/01 14:25:40;;;;;;;6.88;4.70;;;29.60;37.70;;;;;;4920305;29;20461;-77
2023/06/01 14:28:06;;;;;;;7.95;4.72;;;29.70;37.40;;;;;;4937007;29;20058;-77
2023/06/01 14:30:31;;;;;;;7.57;5.03;;;29.70;38.60;;;;;;4923952;29;20044;-76
2023/06/01 14:32:57;;;;;;;7.43;5.28;;;29.70;37.70;;;;;;4926090;29;20056;-77
2023/06/01 14:35:23;;;;;;;8.75;5.35;;;29.60;37.60;;;;;;4919495;29;20024;-76
2023/06/01 14:37:49;;;;;;;9.00;5.57;;;29.50;38.60;;;;;;4925526;29;20043;-77
2023/06/01 14:40:14;;;;;;;8.40;4.45;;;29.40;37.40;;;;;;4920643;29;20070;-76
2023/06/01 14:42:40;;;;;;;8.98;5.38;;;29.50;38.30;;;;;;4920066;29;20041;-76
2023/06/01 14:45:07;;;;;;;8.68;5.70;;;29.50;38.40;;;;;;4920539;29;20051;-76
2023/06/01 14:47:33;;;;;;;7.63;4.68;;;29.60;38.00;;;;;;4919355;29;20067;-76
2023/06/01 14:49:58;;;;;;;7.57;4.88;;;29.60;38.30;;;;;;4919463;29;20111;-76
2023/06/01 14:52:24;;;;;;;6.93;4.88;;;29.40;38.50;;;;;;4921053;29;20075;-77
2023/06/01 14:54:50;;;;;;;8.30;4.65;;;29.30;38.00;;;;;;4921273;29;20032;-76
2023/06/01 14:57:16;;;;;;;6.78;5.15;;;29.40;38.00;;;;;;4918997;29;20479;-77
2023/06/01 14:59:42;;;;;;;9.23;4.75;;;29.60;39.30;;;;;;4925505;29;20083;-77
2023/06/01 15:02:08;;;;;;;8.80;5.05;;;29.40;38.30;;;;;;4925848;29;20032;-77
2023/06/01 15:04:34;;;;;;;7.88;5.00;;;29.50;38.80;;;;;;4902488;29;20025;-77
2023/06/01 15:07:00;;;;;;;7.13;4.78;;;29.50;39.70;;;;;;4904163;29;20044;-76
2023/06/01 15:09:26;;;;;;;10.43;5.03;;;29.70;38.50;;;;;;4931188;29;20051;-76
2023/06/01 15:11:52;;;;;;;7.38;5.22;;;29.60;39.10;;;;;;4922797;29;20032;-77
2023/06/01 15:14:17;;;;;;;7.20;5.00;;;29.60;39.40;;;;;;4918702;29;20020;-77
2023/06/01 15:16:43;;;;;;;7.85;5.20;;;29.50;39.80;;;;;;4916696;29;20039;-77
2023/06/01 15:19:09;;;;;;;8.27;5.13;;;29.50;38.90;;;;;;4918734;29;20039;-76
2023/06/01 15:21:35;;;;;;;7.78;5.20;;;29.60;38.60;;;;;;4917459;29;20039;-76
2023/06/01 15:24:01;;;;;;;7.88;5.15;;;29.60;39.10;;;;;;4911694;29;20140;-76
2023/06/01 15:26:27;;;;;;;8.45;4.63;;;29.70;40.20;;;;;;4900425;29;20064;-77
2023/06/01 15:28:52;;;;;;;8.02;5.55;;;29.60;38.40;;;;;;4900282;29;20524;-76
2023/06/01 15:31:18;;;;;;;7.20;5.22;;;29.60;39.30;;;;;;4904924;29;20041;-76
2023/06/01 15:33:44;;;;;;;8.82;5.45;;;29.70;39.40;;;;;;4905748;29;20115;-74
2023/06/01 15:36:10;;;;;;;8.32;5.20;;;29.70;39.60;;;;;;4930563;29;20067;-76
2023/06/01 15:38:36;;;;;;;7.32;5.28;;;29.70;39.30;;;;;;4902029;29;20867;-74
2023/06/01 15:41:02;;;;;;;7.43;5.22;;;29.50;39.90;;;;;;4901912;29;20033;-76
2023/06/01 15:43:28;;;;;;;7.05;5.28;;;29.60;40.70;;;;;;4916814;29;20111;-75
2023/06/01 15:45:54;;;;;;;8.45;5.90;;;29.50;40.10;;;;;;4919176;29;20031;-76
2023/06/01 15:48:19;;;;;;;8.35;5.50;;;29.50;40.60;;;;;;4917844;29;20036;-76
2023/06/01 15:50:45;;;;;;;8.05;5.28;;;29.50;40.20;;;;;;4917426;29;20024;-76
2023/06/01 15:53:11;;;;;;;8.73;5.50;;;29.30;40.70;;;;;;4913032;29;20083;-77
2023/06/01 15:55:36;;;;;;;11.00;6.03;;;29.30;40.30;;;;;;4934595;29;20099;-76
2023/06/01 15:58:02;;;;;;;9.60;6.05;;;29.30;40.60;;;;;;4918341;29;20410;-76
2023/06/01 16:00:27;;;;;;;9.38;6.35;;;29.20;40.60;;;;;;4922016;29;20530;-77
2023/06/01 16:02:53;;;;;;;12.00;7.22;;;29.10;41.30;;;;;;4913987;29;20395;-76
2023/06/01 16:05:19;;;;;;;12.18;6.65;;;29.20;41.40;;;;;;4916887;29;20066;-76
2023/06/01 16:07:45;;;;;;;9.30;6.45;;;29.30;41.60;;;;;;4936626;29;20055;-76
2023/06/01 16:10:13;;;;;;;9.27;6.75;;;29.20;42.10;;;;;;4919686;29;20032;-76
2023/06/01 16:12:39;;;;;;;13.90;6.88;;;29.00;41.60;;;;;;4918877;29;20483;-76
2023/06/01 16:15:05;;;;;;;10.93;7.18;;;29.00;42.40;;;;;;4919428;29;20021;-76
2023/06/01 16:17:31;;;;;;;13.98;7.07;;;29.00;42.30;;;;;;4915769;29;20048;-76
2023/06/01 16:19:57;;;;;;;12.07;7.57;;;29.00;42.30;;;;;;4918834;29;20024;-76
2023/06/01 16:22:23;;;;;;;9.25;7.32;;;29.00;42.70;;;;;;4920084;29;20028;-76
2023/06/01 16:24:49;;;;;;;10.40;7.35;;;29.00;42.70;;;;;;4916427;29;20115;-76
2023/06/01 16:27:14;;;;;;;12.40;8.73;;;29.00;43.00;;;;;;4918540;29;20026;-76
2023/06/01 16:29:40;;;;;;;13.07;8.25;;;29.00;43.40;;;;;;4917991;29;20052;-76
2023/06/01 16:32:06;;;;;;;14.18;10.05;;;28.90;43.80;;;;;;4934528;29;20047;-76
2023/06/01 16:34:31;;;;;;;14.00;9.27;;;28.90;43.80;;;;;;4937256;29;20034;-76
2023/06/01 16:36:57;;;;;;;11.27;8.45;;;28.80;44.30;;;;;;4937997;29;20091;-76
2023/06/01 16:39:23;;;;;;;14.55;9.80;;;28.70;44.30;;;;;;4938122;29;20030;-76
2023/06/01 16:41:48;;;;;;;11.70;8.50;;;28.60;45.10;;;;;;4938016;29;20075;-76
2023/06/01 16:44:14;;;;;;;13.93;9.45;;;28.40;45.20;;;;;;4944463;29;20560;-75
2023/06/01 16:46:40;;;;;;;12.07;8.80;;;28.30;45.40;;;;;;4933913;29;20027;-75
2023/06/01 16:49:05;;;;;;;13.07;8.60;;;28.30;45.40;;;;;;4937574;29;20023;-76
2023/06/01 16:51:31;;;;;;;15.40;9.20;;;28.30;45.70;;;;;;4933535;29;20034;-75
2023/06/01 16:53:57;;;;;;;13.13;9.23;;;28.30;45.80;;;;;;4956297;29;20019;-76
2023/06/01 16:56:24;;;;;;;12.65;9.00;;;28.30;45.80;;;;;;4947613;29;20036;-76
2023/06/01 16:58:49;;;;;;;13.88;9.23;;;28.20;46.40;;;;;;4930994;29;20043;-77
2023/06/01 17:01:15;;;;;;;14.77;9.30;;;28.10;46.60;;;;;;4922566;29;20032;-78
2023/06/01 17:03:41;;;;;;;12.43;8.90;;;28.10;46.50;;;;;;4936972;29;20390;-76
2023/06/01 17:06:07;;;;;;;13.93;8.57;;;28.10;46.50;;;;;;4929833;29;20031;-77
2023/06/01 17:08:32;;;;;;;11.95;8.38;;;28.10;46.60;;;;;;4938166;29;20469;-79